createdAt,value
2018-02-06T00:00:14.424Z,24.30
2018-02-06T00:02:41.956Z,24.80
2018-02-06T00:05:09.547Z,25.48
2018-02-06T00:07:37.082Z,24.70
2018-02-06T00:10:04.619Z,24.92
2018-02-06T00:12:32.876Z,23.83
2018-02-06T00:15:00.425Z,23.20
2018-02-06T00:17:28.728Z,25.20
2018-02-06T00:19:56.300Z,22.13
2018-02-06T00:25:17.259Z,21.33
2018-02-06T00:27:45.379Z,24.13
2018-02-06T00:30:25.498Z,22.05
2018-02-06T00:41:08.075Z,23.50
2018-02-06T00:43:36.379Z,22.87
2018-02-06T00:46:03.915Z,24.20
2018-02-06T00:48:32.866Z,23.98
2018-02-06T00:51:00.403Z,23.53
2018-02-06T00:53:27.963Z,21.15
2018-02-06T00:55:55.527Z,21.30
2018-02-06T00:58:23.075Z,25.03
2018-02-06T01:00:50.633Z,25.37
2018-02-06T01:03:18.205Z,25.90
2018-02-06T01:05:45.749Z,18.90
2018-02-06T01:08:25.823Z,24.70
2018-02-06T01:15:49.279Z,24.00
2018-02-06T01:18:16.826Z,20.83
2018-02-06T01:20:44.415Z,22.97
2018-02-06T01:23:11.995Z,26.20
2018-02-06T01:25:39.579Z,24.42
2018-02-06T01:28:07.116Z,25.57
2018-02-06T01:30:35.006Z,20.65
2018-02-06T01:33:02.552Z,25.95
2018-02-06T01:35:30.086Z,24.57
2018-02-06T01:37:57.658Z,24.40
2018-02-06T01:40:25.202Z,23.80
2018-02-06T01:42:52.740Z,25.70
2018-02-06T01:45:21.070Z,25.52
2018-02-06T01:47:48.671Z,25.55
2018-02-06T01:50:16.504Z,20.85
2018-02-06T01:52:44.295Z,21.00
2018-02-06T01:55:11.891Z,24.20
2018-02-06T01:57:39.426Z,22.70
2018-02-06T02:00:07.020Z,26.03
2018-02-06T02:02:34.563Z,23.85
2018-02-06T02:05:02.868Z,23.50
2018-02-06T02:07:30.451Z,24.67
2018-02-06T02:09:57.995Z,28.00
2018-02-06T02:12:25.556Z,27.98
2018-02-06T02:14:53.430Z,23.83
2018-02-06T02:17:21.623Z,24.77
2018-02-06T02:19:49.196Z,24.70
2018-02-06T02:22:16.758Z,25.10
2018-02-06T02:24:44.341Z,23.70
2018-02-06T02:27:11.883Z,24.73
2018-02-06T02:29:39.471Z,24.43
2018-02-06T02:32:07.028Z,25.80
2018-02-06T02:34:34.563Z,26.10
2018-02-06T02:37:03.050Z,21.70
2018-02-06T02:39:30.595Z,23.97
2018-02-06T04:40:44.043Z,24.40
2018-02-06T04:43:11.592Z,27.90
2018-02-06T04:45:39.135Z,25.13
2018-02-06T04:48:07.203Z,26.07
2018-02-06T04:50:34.743Z,27.03
2018-02-06T04:53:02.288Z,27.77
2018-02-06T04:55:29.891Z,27.73
2018-02-06T04:57:57.484Z,27.83
2018-02-06T05:00:25.018Z,28.95
2018-02-06T05:02:52.609Z,29.17
2018-02-06T05:05:20.923Z,30.88
2018-02-06T05:07:48.471Z,28.75
2018-02-06T05:10:17.106Z,28.58
2018-02-06T05:12:44.650Z,29.53
2018-02-06T05:15:12.191Z,27.90
2018-02-06T05:17:39.763Z,30.50
2018-02-06T05:20:07.367Z,30.60
2018-02-06T05:22:35.911Z,28.27
2018-02-06T05:25:03.519Z,31.80
2018-02-06T05:27:31.141Z,30.37
2018-02-06T05:29:58.687Z,30.43
2018-02-06T05:32:27.077Z,29.60
2018-02-06T05:34:54.703Z,29.37
2018-02-06T05:37:22.247Z,30.77
2018-02-06T05:39:49.827Z,29.97
2018-02-06T05:42:17.383Z,29.73
2018-02-06T05:44:44.927Z,30.80
2018-02-06T05:47:12.543Z,29.43
2018-02-06T05:49:40.090Z,29.03
2018-02-06T05:52:07.631Z,28.33
2018-02-06T05:54:35.263Z,31.00
2018-02-06T05:57:02.804Z,28.13
2018-02-06T05:59:30.399Z,28.33
2018-02-06T06:01:57.987Z,29.53
2018-02-06T06:04:25.529Z,28.93
2018-02-06T06:06:53.080Z,29.57
2018-02-06T06:09:20.713Z,28.10
2018-02-06T06:11:49.071Z,26.23
2018-02-06T06:14:16.630Z,30.25
2018-02-06T06:16:44.528Z,33.97
2018-02-06T06:19:12.072Z,30.53
2018-02-06T06:21:39.934Z,30.20
2018-02-06T06:24:07.572Z,31.50
2018-02-06T06:26:35.114Z,29.80
2018-02-06T06:29:02.686Z,29.47
2018-02-06T06:31:30.287Z,30.12
2018-02-06T06:33:59.380Z,33.07
2018-02-06T06:36:26.931Z,31.60
2018-02-06T06:38:54.953Z,31.50
2018-02-06T06:41:22.496Z,29.70
2018-02-06T06:43:50.034Z,29.60
2018-02-06T06:46:18.374Z,31.23
2018-02-06T06:48:45.911Z,27.07
2018-02-06T06:51:15.524Z,28.90
2018-02-06T06:53:43.092Z,30.20
2018-02-06T06:56:10.642Z,29.07
2018-02-06T06:58:38.186Z,30.80
2018-02-06T07:01:06.203Z,26.97
2018-02-06T07:03:33.748Z,28.33
2018-02-06T07:06:01.292Z,27.83
2018-02-06T07:08:28.869Z,30.07
2018-02-06T07:10:56.419Z,30.30
2018-02-06T07:13:24.031Z,30.67
2018-02-06T07:15:51.651Z,29.17
2018-02-06T07:18:19.215Z,31.73
2018-02-06T07:20:46.771Z,28.70
2018-02-06T07:23:25.903Z,30.75
2018-02-06T07:32:28.939Z,28.42
2018-02-06T07:34:56.800Z,33.35
2018-02-06T07:37:24.334Z,29.70
2018-02-06T07:39:52.387Z,32.07
2018-02-06T07:42:19.951Z,30.37
2018-02-06T07:44:47.492Z,29.20
2018-02-06T07:47:16.527Z,30.48
2018-02-06T07:49:44.847Z,28.53
2018-02-06T07:52:12.391Z,30.85
2018-02-06T07:54:39.951Z,31.70
2018-02-06T07:57:07.495Z,30.10
2018-02-06T07:59:35.027Z,29.40
2018-02-06T08:02:03.853Z,31.35
2018-02-06T08:04:31.409Z,30.90
2018-02-06T08:06:58.957Z,30.30
2018-02-06T08:09:26.528Z,29.90
2018-02-06T08:11:54.103Z,30.93
2018-02-06T08:14:21.654Z,31.60
2018-02-06T08:16:49.247Z,28.43
2018-02-06T08:19:16.798Z,29.53
2018-02-06T08:21:44.339Z,31.08
2018-02-06T08:24:12.335Z,29.57
2018-02-06T08:26:39.866Z,30.87
2018-02-06T08:29:07.407Z,29.40
2018-02-06T08:31:34.975Z,32.20
2018-02-06T08:34:03.030Z,31.42
2018-02-06T08:36:30.583Z,29.40
2018-02-06T08:38:58.919Z,28.90
2018-02-06T08:41:26.463Z,28.20
2018-02-06T08:43:54.003Z,28.27
2018-02-06T08:46:22.210Z,29.27
2018-02-06T08:48:49.755Z,29.43
2018-02-06T08:51:17.303Z,28.53
2018-02-06T08:53:44.871Z,28.03
2018-02-06T08:56:14.091Z,29.10
2018-02-06T08:58:41.728Z,29.20
2018-02-06T09:01:09.296Z,29.90
2018-02-06T09:03:36.834Z,29.10
2018-02-06T09:06:04.371Z,29.13
2018-02-06T09:08:33.159Z,30.23
2018-02-06T09:11:00.703Z,30.47
2018-02-06T09:13:28.236Z,28.60
2018-02-06T09:15:56.112Z,31.53
2018-02-06T09:18:23.651Z,28.70
2018-02-06T09:20:51.182Z,27.90
2018-02-06T09:23:18.742Z,29.30
2018-02-06T09:25:46.282Z,27.33
2018-02-06T09:28:26.191Z,28.05
2018-02-06T09:33:37.494Z,25.07
2018-02-06T09:36:05.467Z,26.40
2018-02-06T09:38:33.030Z,26.33
2018-02-06T09:41:00.643Z,28.70
2018-02-06T09:43:28.180Z,28.52
2018-02-06T09:45:56.479Z,27.80
2018-02-06T09:48:24.595Z,26.60
2018-02-06T09:50:52.137Z,26.33
2018-02-06T09:53:19.737Z,27.27
2018-02-06T09:55:47.294Z,27.37
2018-02-06T09:58:17.268Z,28.35
2018-02-06T10:00:45.069Z,27.13
2018-02-06T10:03:12.627Z,27.20
2018-02-06T10:05:40.167Z,28.13
2018-02-06T10:08:07.699Z,26.67
2018-02-06T10:10:35.283Z,27.90
2018-02-06T10:13:02.831Z,28.13
2018-02-06T10:15:31.152Z,28.60
2018-02-06T10:17:58.744Z,29.33
2018-02-06T10:20:27.044Z,31.07
2018-02-06T10:22:54.575Z,27.47
2018-02-06T10:25:22.930Z,28.53
2018-02-06T10:27:50.646Z,29.25
2018-02-06T10:30:18.184Z,28.73
2018-02-06T10:32:46.975Z,28.13
2018-02-06T10:35:16.504Z,28.50
2018-02-06T10:37:44.274Z,29.63
2018-02-06T10:40:11.958Z,26.80
2018-02-06T10:42:39.524Z,28.25
2018-02-06T10:45:07.119Z,27.53
2018-02-06T10:47:34.716Z,27.30
2018-02-06T10:50:02.275Z,26.63
2018-02-06T10:52:29.815Z,27.13
2018-02-06T10:54:57.927Z,28.33
2018-02-06T10:57:25.479Z,26.58
2018-02-06T10:59:53.011Z,25.60
2018-02-06T11:02:20.566Z,26.20
2018-02-06T11:04:48.092Z,26.30
2018-02-06T11:07:16.467Z,25.40
2018-02-06T11:09:44.022Z,25.80
2018-02-06T11:12:11.551Z,27.40
2018-02-06T11:14:39.102Z,27.60
2018-02-06T11:17:07.256Z,27.10
2018-02-06T11:19:34.816Z,27.50
2018-02-06T11:22:02.355Z,26.57
2018-02-06T11:24:29.922Z,27.20
2018-02-06T11:26:58.219Z,26.13
2018-02-06T11:29:25.751Z,25.55
2018-02-06T11:31:54.075Z,25.83
2018-02-06T11:34:21.603Z,26.37
2018-02-06T11:36:49.908Z,24.77
2018-02-06T11:39:18.080Z,26.70
2018-02-06T11:41:45.619Z,27.90
2018-02-06T11:44:15.335Z,27.50
2018-02-06T11:46:42.891Z,25.73
2018-02-06T11:49:10.431Z,27.40
2018-02-06T11:51:37.963Z,28.63
2018-02-06T11:54:05.532Z,28.38
2018-02-06T11:56:33.075Z,29.95
2018-02-06T11:59:00.603Z,27.93
2018-02-06T12:01:28.523Z,27.40
2018-02-06T12:03:56.052Z,28.20
2018-02-06T12:06:23.586Z,25.88
2018-02-06T12:08:51.143Z,28.57
2018-02-06T12:11:18.679Z,27.67
2018-02-06T12:13:46.991Z,28.80
2018-02-06T12:16:16.327Z,31.05
2018-02-06T12:18:43.856Z,27.37
2018-02-06T12:21:11.388Z,29.10
2018-02-06T12:23:39.302Z,28.30
2018-02-06T12:26:06.835Z,28.60
2018-02-06T12:28:34.362Z,29.33
2018-02-06T12:31:02.676Z,26.83
2018-02-06T12:33:30.259Z,30.47
2018-02-06T12:35:57.871Z,27.30
2018-02-06T12:38:26.234Z,26.37
2018-02-06T12:40:54.243Z,27.83
2018-02-06T12:43:21.787Z,27.23
2018-02-06T12:45:50.771Z,28.30
2018-02-06T12:48:19.109Z,28.37
2018-02-06T12:50:46.671Z,28.63
2018-02-06T12:53:25.892Z,29.02
2018-02-06T13:00:18.527Z,27.37
2018-02-06T13:02:46.099Z,27.43
2018-02-06T13:05:21.792Z,30.20
2018-02-06T13:07:49.347Z,28.60
2018-02-06T13:10:16.903Z,28.80
2018-02-06T13:12:44.993Z,26.73
2018-02-06T13:15:12.828Z,28.93
2018-02-06T13:17:41.131Z,28.83
2018-02-06T13:20:09.660Z,28.92
2018-02-06T13:22:37.351Z,28.37
2018-02-06T13:25:06.144Z,27.83
2018-02-06T13:27:33.767Z,26.03
2018-02-06T13:30:01.312Z,26.60
2018-02-06T13:32:29.648Z,27.33
2018-02-06T13:34:57.220Z,28.10
2018-02-06T13:37:24.778Z,26.70
2018-02-06T13:39:52.355Z,26.73
2018-02-06T13:42:20.671Z,25.55
2018-02-06T15:20:00.353Z,21.50
2018-02-06T15:22:28.664Z,22.40
2018-02-06T15:24:56.211Z,22.20
2018-02-06T15:27:23.771Z,21.43
2018-02-06T15:29:51.319Z,22.10
2018-02-06T15:32:18.938Z,20.90
2018-02-06T15:34:46.546Z,22.53
2018-02-06T15:37:16.272Z,23.20
2018-02-06T15:39:43.807Z,21.87
2018-02-06T15:42:11.959Z,23.27
2018-02-06T15:44:39.495Z,23.70
2018-02-06T15:47:07.046Z,21.83
2018-02-06T15:49:35.920Z,23.73
2018-02-06T15:52:03.463Z,22.70
2018-02-06T15:54:31.003Z,23.13
2018-02-06T15:56:58.556Z,22.90
2018-02-06T15:59:26.086Z,23.07
2018-02-06T16:01:53.617Z,24.53
2018-02-06T16:04:21.779Z,23.10
2018-02-06T16:06:49.314Z,25.60
2018-02-06T16:09:16.855Z,26.63
2018-02-06T16:11:44.428Z,25.20
2018-02-06T16:14:12.876Z,23.40
2018-02-06T16:16:40.416Z,24.52
2018-02-06T16:19:08.507Z,25.77
2018-02-06T16:21:36.282Z,27.30
2018-02-06T16:24:03.823Z,27.53
2018-02-06T16:26:31.469Z,26.85
2018-02-06T16:28:59.004Z,27.53
2018-02-06T16:31:28.085Z,28.05
2018-02-06T16:33:55.676Z,26.08
2018-02-06T16:36:23.227Z,26.98
2018-02-06T16:38:50.776Z,25.77
2018-02-06T16:41:18.339Z,26.30
2018-02-06T16:43:45.873Z,25.13
2018-02-06T16:46:15.433Z,27.45
2018-02-06T16:48:43.048Z,27.50
2018-02-06T16:51:10.611Z,28.00
2018-02-06T16:53:38.168Z,29.00
2018-02-06T16:56:06.550Z,29.70
2018-02-06T16:58:34.075Z,28.30
2018-02-06T17:01:01.638Z,30.58
2018-02-06T17:03:29.512Z,29.47
2018-02-06T17:05:57.046Z,30.27
2018-02-06T17:08:24.594Z,29.13
2018-02-06T17:10:52.659Z,30.50
2018-02-06T17:13:21.127Z,30.23
2018-02-06T17:15:48.634Z,30.77
2018-02-06T17:18:17.364Z,28.83
2018-02-06T17:20:45.667Z,31.93
2018-02-06T17:23:19.471Z,32.34
2018-02-06T17:25:47.019Z,29.20
2018-02-06T17:28:16.459Z,31.08
2018-02-06T17:30:44.220Z,28.60
2018-02-06T17:33:12.048Z,26.40
2018-02-06T17:35:40.347Z,29.70
2018-02-06T17:38:07.939Z,32.37
2018-02-06T17:40:35.513Z,28.65
2018-02-06T17:43:03.069Z,30.20
2018-02-06T17:45:30.660Z,32.23
2018-02-06T17:47:58.965Z,27.50
2018-02-06T17:50:27.250Z,29.40
2018-02-06T17:52:55.286Z,31.07
2018-02-06T17:55:23.597Z,30.97
2018-02-06T17:57:51.136Z,26.33
2018-02-06T18:00:19.471Z,27.95
2018-02-06T18:02:47.405Z,31.90
2018-02-06T18:05:17.342Z,31.08
2018-02-06T18:07:44.923Z,29.77
2018-02-06T18:10:12.463Z,32.08
2018-02-06T18:12:40.004Z,29.90
2018-02-06T18:15:07.664Z,32.22
2018-02-06T18:17:35.204Z,32.17
2018-02-06T18:20:02.793Z,31.80
2018-02-06T18:22:31.139Z,29.93
2018-02-06T18:24:58.908Z,31.17
2018-02-06T18:27:26.448Z,31.20
2018-02-06T18:29:54.781Z,32.80
2018-02-06T18:32:22.316Z,32.50
2018-02-06T18:34:49.856Z,34.20
2018-02-06T18:37:17.506Z,33.27
2018-02-06T18:39:45.017Z,34.47
2018-02-06T18:42:14.317Z,34.20
2018-02-06T18:44:41.885Z,37.90
2018-02-06T18:47:09.424Z,35.17
2018-02-06T18:49:37.019Z,36.00
2018-02-06T18:52:04.585Z,38.00
2018-02-06T18:54:32.126Z,34.10
2018-02-06T18:56:59.663Z,36.13
2018-02-06T18:59:27.247Z,36.27
2018-02-06T19:01:54.787Z,32.97
2018-02-06T19:04:23.140Z,53.40
2018-02-06T19:06:50.704Z,65.77
2018-02-06T19:09:19.188Z,47.90
2018-02-06T19:11:46.728Z,41.13
2018-02-06T19:14:16.319Z,38.72
2018-02-06T19:16:43.888Z,35.60
2018-02-06T19:19:11.428Z,35.05
2018-02-06T19:21:39.073Z,39.33
2018-02-06T19:24:06.613Z,33.17
2018-02-06T19:26:34.584Z,34.27
2018-02-06T19:29:02.156Z,35.43
2018-02-06T19:31:29.704Z,38.05
2018-02-06T19:33:57.299Z,35.50
2018-02-06T19:36:24.934Z,34.00
2018-02-06T19:38:52.491Z,36.27
2018-02-06T19:41:20.038Z,37.30
2018-02-06T19:43:48.044Z,36.17
2018-02-06T19:46:17.223Z,34.40
2018-02-06T19:48:44.760Z,36.03
2018-02-06T19:51:12.328Z,31.90
2018-02-06T19:53:39.947Z,32.53
2018-02-06T19:56:07.527Z,32.47
2018-02-06T19:58:36.060Z,35.67
2018-02-06T20:01:03.675Z,35.20
2018-02-06T20:03:32.035Z,34.77
2018-02-06T20:06:00.696Z,33.17
2018-02-06T20:08:28.298Z,38.07
2018-02-06T20:10:55.851Z,32.90
2018-02-06T20:13:24.257Z,34.63
2018-02-06T20:15:51.812Z,34.87
2018-02-06T20:18:19.617Z,35.37
2018-02-06T20:20:47.244Z,37.03
2018-02-06T20:23:17.226Z,35.58
2018-02-06T20:25:45.537Z,36.40
2018-02-06T20:28:15.479Z,33.47
2018-02-06T20:30:43.079Z,34.20
2018-02-06T20:33:11.393Z,36.77
2018-02-06T20:35:38.960Z,35.40
2018-02-06T20:38:06.508Z,35.47
2018-02-06T20:40:34.060Z,37.87
2018-02-06T20:43:01.628Z,34.58
2018-02-06T20:45:29.221Z,35.80
2018-02-06T20:47:56.777Z,34.70
2018-02-06T20:50:24.855Z,32.70
2018-02-06T20:52:52.396Z,34.47
2018-02-06T20:55:19.936Z,34.30
2018-02-06T20:57:47.514Z,33.40
2018-02-06T21:00:17.424Z,33.26
2018-02-06T21:02:45.028Z,33.90
2018-02-06T21:05:12.646Z,34.10
2018-02-06T21:07:40.184Z,35.27
2018-02-06T21:10:07.798Z,35.83
2018-02-06T21:12:35.859Z,35.23
2018-02-06T21:15:03.404Z,36.63
2018-02-06T21:17:30.957Z,37.50
2018-02-06T21:19:58.602Z,37.50
2018-02-06T21:22:26.907Z,36.00
2018-02-06T21:24:54.490Z,36.93
2018-02-06T21:27:22.060Z,35.30
2018-02-06T21:29:50.672Z,35.07
2018-02-06T21:32:18.987Z,39.57
2018-02-06T21:34:46.607Z,43.40
2018-02-06T21:37:16.356Z,41.03
2018-02-06T21:39:43.950Z,40.93
2018-02-06T21:42:11.574Z,37.23
2018-02-06T21:44:39.114Z,37.00
2018-02-06T21:47:06.664Z,37.47
2018-02-06T21:49:36.499Z,36.10
2018-02-06T21:52:04.040Z,37.10
2018-02-06T21:54:31.592Z,37.08
2018-02-06T21:56:59.997Z,36.87
2018-02-06T21:59:27.569Z,39.17
2018-02-06T22:01:55.135Z,37.63
2018-02-06T22:04:22.699Z,36.60
2018-02-06T22:06:50.244Z,36.23
2018-02-06T22:09:17.839Z,36.47
2018-02-06T22:11:45.778Z,37.03
2018-02-06T22:14:15.375Z,38.80
2018-02-06T22:16:42.911Z,39.13
2018-02-06T22:19:11.313Z,38.40
2018-02-06T22:21:38.847Z,37.33
2018-02-06T22:24:07.160Z,35.28
2018-02-06T22:26:34.720Z,37.00
2018-02-06T22:29:02.259Z,37.97
2018-02-06T22:31:34.360Z,36.17
2018-02-06T22:34:01.952Z,37.77
2018-02-06T22:36:29.501Z,36.30
2018-02-06T22:38:59.195Z,38.30
2018-02-06T22:41:26.999Z,36.92
2018-02-06T22:43:54.554Z,35.58
2018-02-06T22:46:22.919Z,38.13
2018-02-06T22:48:50.490Z,37.85
2018-02-06T22:51:18.051Z,38.17
2018-02-06T22:53:45.593Z,36.72
2018-02-06T22:56:15.400Z,38.28
2018-02-06T22:58:42.940Z,39.33
2018-02-06T23:01:10.815Z,39.27
2018-02-06T23:03:38.432Z,38.10
2018-02-06T23:06:05.971Z,39.60
2018-02-06T23:08:33.520Z,39.67
2018-02-06T23:11:01.821Z,38.97
2018-02-06T23:13:30.156Z,41.17
2018-02-06T23:15:57.702Z,41.20
2018-02-06T23:18:25.279Z,39.13
2018-02-06T23:20:52.838Z,39.57
2018-02-06T23:23:20.375Z,42.25
2018-02-06T23:25:48.371Z,40.23
2018-02-06T23:28:17.443Z,45.35
2018-02-06T23:30:45.006Z,41.87
2018-02-06T23:33:14.419Z,41.50
2018-02-06T23:35:41.968Z,38.97
2018-02-06T23:38:09.519Z,42.70
2018-02-06T23:40:37.419Z,43.17
2018-02-06T23:43:04.955Z,40.00
2018-02-06T23:45:32.496Z,41.30
2018-02-06T23:48:00.250Z,43.90
2018-02-06T23:50:27.791Z,39.93
2018-02-06T23:52:55.331Z,42.37
2018-02-06T23:55:22.896Z,40.20
2018-02-06T23:57:50.436Z,42.10
